Time;durP1;ratioP1;P1;durP2;ratioP2;P2;SDS_P1;SDS_P2;PMS_P1;PMS_P2;Temp;Humidity;BMP_temperature;BMP_pressure;BME280_temperature;BME280_humidity;BME280_pressure;Samples;Min_cycle;Max_cycle;Signal;HPM_P1;HPM_P2
2020/12/26 00:01:21;;;;;;;14.55;3.33;;;;;;;;;;4942669;28;20062;-59
2020/12/26 00:03:48;;;;;;;13.40;3.80;;;;;;;;;;4941093;28;20050;-59
2020/12/26 00:06:15;;;;;;;10.95;3.20;;;;;;;;;;4942666;28;20043;-59
2020/12/26 00:08:41;;;;;;;8.85;2.47;;;;;;;;;;4940902;28;20047;-59
2020/12/26 00:11:09;;;;;;;7.00;2.42;;;;;;;;;;4943206;29;20159;-59
2020/12/26 00:13:35;;;;;;;7.43;2.40;;;;;;;;;;4938263;28;20047;-59
2020/12/26 00:16:03;;;;;;;9.60;2.78;;;;;;;;;;4943330;28;20041;-60
2020/12/26 00:18:29;;;;;;;10.55;2.45;;;;;;;;;;4940270;28;20027;-59
2020/12/26 00:20:55;;;;;;;8.50;2.60;;;;;;;;;;4945198;28;20050;-60
2020/12/26 00:23:21;;;;;;;9.32;2.53;;;;;;;;;;4939020;28;20036;-59
2020/12/26 00:25:48;;;;;;;8.73;2.38;;;;;;;;;;4939899;29;20036;-59
2020/12/26 00:28:15;;;;;;;8.48;2.78;;;;;;;;;;4954469;28;20036;-59
2020/12/26 00:30:41;;;;;;;8.77;2.58;;;;;;;;;;4943762;28;20062;-59
2020/12/26 00:33:07;;;;;;;11.85;3.88;;;;;;;;;;4942719;28;20043;-59
2020/12/26 00:35:34;;;;;;;20.48;5.70;;;;;;;;;;4942947;28;20043;-59
2020/12/26 00:38:00;;;;;;;8.98;3.50;;;;;;;;;;4953926;28;20107;-60
2020/12/26 00:40:26;;;;;;;7.38;2.47;;;;;;;;;;4956511;28;20063;-59
2020/12/26 00:42:52;;;;;;;7.25;2.50;;;;;;;;;;4959091;28;20047;-59
2020/12/26 00:45:19;;;;;;;8.60;2.58;;;;;;;;;;4941770;28;20047;-60
2020/12/26 00:47:45;;;;;;;10.25;3.22;;;;;;;;;;4959176;28;20043;-59
2020/12/26 00:50:11;;;;;;;12.48;4.60;;;;;;;;;;4940683;28;20063;-59
2020/12/26 00:52:37;;;;;;;8.82;3.22;;;;;;;;;;4959703;28;20046;-59
2020/12/26 00:55:04;;;;;;;7.95;2.58;;;;;;;;;;4956668;28;20073;-59
2020/12/26 00:57:30;;;;;;;9.98;2.78;;;;;;;;;;4959488;28;20043;-60
2020/12/26 00:59:56;;;;;;;4.85;2.28;;;;;;;;;;4957162;28;20047;-59
2020/12/26 01:02:23;;;;;;;4.80;2.00;;;;;;;;;;4969783;28;20059;-60
2020/12/26 01:04:49;;;;;;;8.63;2.53;;;;;;;;;;4971745;28;20482;-60
2020/12/26 01:07:15;;;;;;;9.80;2.60;;;;;;;;;;4943335;28;20040;-59
2020/12/26 01:09:41;;;;;;;4.78;2.03;;;;;;;;;;4941116;28;20053;-60
2020/12/26 01:12:07;;;;;;;8.05;2.00;;;;;;;;;;4980145;28;20071;-59
2020/12/26 01:14:33;;;;;;;5.72;2.20;;;;;;;;;;4962737;28;20039;-60
2020/12/26 01:16:59;;;;;;;8.02;2.58;;;;;;;;;;4943199;28;20099;-59
2020/12/26 01:19:27;;;;;;;8.40;2.40;;;;;;;;;;4944717;28;20044;-60
2020/12/26 01:21:53;;;;;;;11.57;2.60;;;;;;;;;;4955074;28;20039;-59
2020/12/26 01:24:19;;;;;;;9.55;2.50;;;;;;;;;;4944705;28;20187;-59
2020/12/26 01:26:47;;;;;;;8.98;2.72;;;;;;;;;;4958921;28;20108;-59
2020/12/26 01:29:13;;;;;;;9.65;2.75;;;;;;;;;;4954354;28;20063;-59
2020/12/26 01:31:39;;;;;;;8.80;2.28;;;;;;;;;;4960002;28;20079;-59
2020/12/26 01:34:05;;;;;;;9.05;2.40;;;;;;;;;;4961429;28;20043;-59
2020/12/26 01:36:32;;;;;;;11.40;3.20;;;;;;;;;;4952811;28;20040;-59
2020/12/26 01:38:58;;;;;;;7.25;2.53;;;;;;;;;;4917750;28;20043;-59
2020/12/26 01:41:24;;;;;;;7.80;2.72;;;;;;;;;;4930441;28;20036;-60
2020/12/26 01:43:56;;;;;;;9.40;2.78;;;;;;;;;;4947240;28;20094;-60
2020/12/26 01:46:26;;;;;;;6.80;3.28;;;;;;;;;;4942100;28;20050;-60
2020/12/26 01:48:52;;;;;;;8.02;2.60;;;;;;;;;;4961267;28;20114;-59
2020/12/26 01:51:18;;;;;;;10.52;2.80;;;;;;;;;;4951909;28;20059;-59
2020/12/26 01:53:46;;;;;;;9.57;3.45;;;;;;;;;;4947223;28;20039;-59
2020/12/26 01:56:15;;;;;;;9.75;2.95;;;;;;;;;;4955192;28;20068;-59
2020/12/26 01:58:42;;;;;;;9.20;2.88;;;;;;;;;;4942554;28;20062;-60
2020/12/26 02:01:08;;;;;;;9.13;2.65;;;;;;;;;;4930896;28;20040;-60
2020/12/26 02:03:34;;;;;;;8.02;2.67;;;;;;;;;;4958927;28;20051;-59
2020/12/26 02:06:00;;;;;;;9.93;2.47;;;;;;;;;;4966599;28;20039;-59
2020/12/26 02:08:26;;;;;;;11.15;2.42;;;;;;;;;;4949099;28;20141;-60
2020/12/26 02:10:53;;;;;;;6.50;2.70;;;;;;;;;;4961606;28;20047;-59
2020/12/26 02:13:19;;;;;;;9.30;2.63;;;;;;;;;;4968754;28;20058;-59
2020/12/26 02:15:46;;;;;;;7.22;2.60;;;;;;;;;;4980875;28;20053;-60
2020/12/26 02:18:12;;;;;;;8.50;2.70;;;;;;;;;;4968674;28;20054;-59
2020/12/26 02:20:38;;;;;;;8.70;2.72;;;;;;;;;;4961858;28;20042;-59
2020/12/26 02:23:04;;;;;;;7.78;2.45;;;;;;;;;;4956982;28;20059;-60
2020/12/26 02:25:31;;;;;;;8.07;2.35;;;;;;;;;;4944951;29;20043;-59
2020/12/26 02:27:57;;;;;;;7.05;2.45;;;;;;;;;;4942492;28;20043;-59
2020/12/26 02:30:25;;;;;;;7.75;2.65;;;;;;;;;;4962659;28;20067;-59
2020/12/26 02:32:51;;;;;;;10.52;2.60;;;;;;;;;;4945932;28;20051;-59
2020/12/26 02:35:17;;;;;;;8.13;2.80;;;;;;;;;;4964391;28;20062;-59
2020/12/26 02:37:43;;;;;;;6.47;2.60;;;;;;;;;;4979967;28;20054;-59
2020/12/26 02:40:09;;;;;;;8.48;2.72;;;;;;;;;;4926868;28;20055;-59
2020/12/26 02:42:36;;;;;;;5.35;2.28;;;;;;;;;;4938831;28;20051;-59
2020/12/26 02:45:03;;;;;;;5.13;2.50;;;;;;;;;;4956580;28;20071;-59
2020/12/26 02:47:29;;;;;;;10.32;2.80;;;;;;;;;;4963975;28;20031;-60
2020/12/26 02:49:55;;;;;;;8.50;3.13;;;;;;;;;;4965850;28;20043;-59
2020/12/26 02:52:21;;;;;;;8.65;2.67;;;;;;;;;;4947058;28;20044;-59
2020/12/26 02:54:47;;;;;;;6.68;2.75;;;;;;;;;;4959150;28;20067;-60
2020/12/26 02:57:13;;;;;;;8.52;2.55;;;;;;;;;;4961519;28;20043;-60
2020/12/26 02:59:40;;;;;;;11.73;3.05;;;;;;;;;;4942786;28;20046;-59
2020/12/26 03:02:06;;;;;;;9.60;3.05;;;;;;;;;;4970950;28;20050;-60
2020/12/26 03:04:32;;;;;;;10.05;2.60;;;;;;;;;;4958950;28;20031;-59
2020/12/26 03:06:58;;;;;;;8.48;2.78;;;;;;;;;;4962014;28;20051;-59
2020/12/26 03:09:24;;;;;;;9.35;2.53;;;;;;;;;;4944009;28;20062;-59
2020/12/26 03:11:50;;;;;;;9.57;2.95;;;;;;;;;;4960961;28;20058;-59
2020/12/26 03:14:16;;;;;;;7.57;3.00;;;;;;;;;;4960794;28;20055;-60
2020/12/26 03:16:43;;;;;;;7.78;2.70;;;;;;;;;;4942372;28;20047;-59
2020/12/26 03:19:09;;;;;;;15.43;2.95;;;;;;;;;;4944391;28;20035;-59
2020/12/26 03:21:35;;;;;;;14.43;3.40;;;;;;;;;;4958331;28;20047;-59
2020/12/26 03:24:01;;;;;;;9.00;3.20;;;;;;;;;;4963297;28;20054;-59
2020/12/26 03:26:29;;;;;;;7.55;3.10;;;;;;;;;;4958301;28;20058;-60
2020/12/26 03:28:55;;;;;;;6.78;2.70;;;;;;;;;;4964849;28;20039;-60
2020/12/26 03:31:21;;;;;;;9.85;3.03;;;;;;;;;;4948993;28;20050;-59
2020/12/26 03:33:48;;;;;;;6.97;2.85;;;;;;;;;;4944972;28;20044;-59
2020/12/26 03:36:14;;;;;;;10.00;3.67;;;;;;;;;;4940266;28;20051;-60
2020/12/26 03:38:40;;;;;;;7.47;2.72;;;;;;;;;;4945481;28;20058;-59
2020/12/26 03:41:06;;;;;;;8.10;2.70;;;;;;;;;;4941985;28;20040;-59
2020/12/26 03:43:32;;;;;;;12.18;3.08;;;;;;;;;;4945050;28;20108;-60
2020/12/26 03:45:58;;;;;;;6.63;2.47;;;;;;;;;;4940905;28;20047;-60
2020/12/26 03:48:24;;;;;;;6.07;2.53;;;;;;;;;;4944885;28;20505;-60
2020/12/26 03:50:51;;;;;;;5.38;2.45;;;;;;;;;;4958518;28;20075;-59
2020/12/26 03:53:17;;;;;;;6.20;2.55;;;;;;;;;;4959991;28;20051;-59
2020/12/26 03:55:44;;;;;;;8.15;2.80;;;;;;;;;;4959823;28;20032;-59
2020/12/26 03:58:10;;;;;;;7.63;2.75;;;;;;;;;;4958078;28;20044;-60
2020/12/26 04:00:36;;;;;;;4.40;2.15;;;;;;;;;;4961358;28;20040;-59
2020/12/26 04:03:02;;;;;;;9.25;2.17;;;;;;;;;;4969755;28;20068;-59
2020/12/26 04:05:28;;;;;;;6.82;2.22;;;;;;;;;;4965052;28;20063;-59
2020/12/26 04:07:55;;;;;;;8.68;2.30;;;;;;;;;;4956192;28;20040;-60
2020/12/26 04:10:21;;;;;;;7.95;2.53;;;;;;;;;;4960488;28;20053;-59
2020/12/26 04:12:47;;;;;;;5.70;1.73;;;;;;;;;;4948863;28;20040;-60
2020/12/26 04:15:14;;;;;;;7.22;2.33;;;;;;;;;;4924481;29;20060;-59
2020/12/26 04:17:40;;;;;;;5.72;2.00;;;;;;;;;;4923295;28;20054;-59
2020/12/26 04:20:06;;;;;;;6.30;1.88;;;;;;;;;;4941369;28;20044;-60
2020/12/26 04:22:32;;;;;;;6.78;2.00;;;;;;;;;;4927359;28;20060;-59
2020/12/26 04:24:59;;;;;;;4.15;1.90;;;;;;;;;;4960215;28;20123;-60
2020/12/26 04:27:25;;;;;;;4.00;1.73;;;;;;;;;;4940492;28;20498;-60
2020/12/26 04:29:51;;;;;;;5.03;1.90;;;;;;;;;;4960793;28;20048;-58
2020/12/26 04:32:16;;;;;;;7.35;2.22;;;;;;;;;;4963189;28;20054;-59
2020/12/26 04:34:46;;;;;;;3.63;1.70;;;;;;;;;;4926836;28;20040;-59
2020/12/26 04:37:12;;;;;;;4.38;1.80;;;;;;;;;;4925991;28;20103;-59
2020/12/26 04:39:39;;;;;;;5.75;1.85;;;;;;;;;;4937100;28;20497;-59
2020/12/26 04:42:06;;;;;;;4.65;1.70;;;;;;;;;;4937138;28;20126;-59
2020/12/26 04:44:32;;;;;;;6.65;1.77;;;;;;;;;;4948987;28;20054;-59
2020/12/26 04:46:58;;;;;;;7.38;1.65;;;;;;;;;;4963424;28;20046;-59
2020/12/26 04:49:26;;;;;;;6.50;1.55;;;;;;;;;;4938708;28;20051;-59
2020/12/26 04:51:56;;;;;;;3.03;1.45;;;;;;;;;;4924848;28;20040;-59
2020/12/26 04:54:23;;;;;;;5.50;1.65;;;;;;;;;;4922482;28;20054;-59
2020/12/26 04:56:52;;;;;;;3.88;1.45;;;;;;;;;;4923802;29;20036;-59
2020/12/26 04:59:19;;;;;;;4.32;1.65;;;;;;;;;;4928068;28;20060;-59
2020/12/26 05:01:47;;;;;;;5.43;1.50;;;;;;;;;;4967204;28;20042;-59
2020/12/26 05:04:13;;;;;;;6.78;1.40;;;;;;;;;;4972002;28;20075;-59
2020/12/26 05:06:48;;;;;;;6.07;1.70;;;;;;;;;;4962830;28;20069;-60
2020/12/26 05:09:16;;;;;;;6.65;1.35;;;;;;;;;;4941870;28;20035;-59
2020/12/26 05:11:52;;;;;;;5.03;1.30;;;;;;;;;;4961399;28;20044;-59
2020/12/26 05:14:19;;;;;;;3.80;1.40;;;;;;;;;;4957823;28;20142;-59
2020/12/26 05:16:45;;;;;;;2.45;1.27;;;;;;;;;;4962744;28;20048;-59
2020/12/26 05:19:11;;;;;;;9.52;1.38;;;;;;;;;;4946558;28;20043;-60
2020/12/26 05:21:37;;;;;;;6.85;1.83;;;;;;;;;;4958910;28;20055;-60
2020/12/26 05:24:05;;;;;;;3.97;1.38;;;;;;;;;;4945905;28;20047;-59
2020/12/26 05:26:32;;;;;;;5.85;1.38;;;;;;;;;;4925197;28;20040;-59
2020/12/26 05:29:02;;;;;;;5.53;1.77;;;;;;;;;;4944096;29;20068;-59
2020/12/26 05:31:58;;;;;;;8.48;1.58;;;;;;;;;;4940570;28;20044;-59
2020/12/26 05:34:31;;;;;;;2.50;1.23;;;;;;;;;;4890126;29;20036;-59
2020/12/26 05:36:58;;;;;;;3.08;1.10;;;;;;;;;;4946935;28;20050;-59
2020/12/26 05:39:27;;;;;;;7.75;1.40;;;;;;;;;;4981365;28;20053;-59
2020/12/26 05:41:54;;;;;;;3.33;1.20;;;;;;;;;;4969452;28;20195;-59
2020/12/26 05:44:24;;;;;;;3.00;1.17;;;;;;;;;;4962387;28;20079;-59
2020/12/26 05:46:54;;;;;;;4.03;1.40;;;;;;;;;;4941741;28;20046;-59
2020/12/26 05:49:21;;;;;;;5.57;1.30;;;;;;;;;;4962126;28;20051;-60
2020/12/26 05:51:49;;;;;;;3.47;1.00;;;;;;;;;;4968784;28;20039;-59
2020/12/26 05:54:16;;;;;;;2.10;1.10;;;;;;;;;;4965038;28;20039;-59
2020/12/26 05:56:42;;;;;;;3.88;1.23;;;;;;;;;;4970190;28;20051;-59
2020/12/26 05:59:21;;;;;;;3.08;1.13;;;;;;;;;;4947958;28;20039;-59
2020/12/26 06:01:47;;;;;;;5.00;1.38;;;;;;;;;;4967260;28;20053;-59
2020/12/26 06:04:14;;;;;;;3.45;1.30;;;;;;;;;;4981216;28;20039;-60
2020/12/26 06:06:41;;;;;;;6.70;1.50;;;;;;;;;;4972408;28;20043;-60
2020/12/26 06:09:08;;;;;;;4.05;1.20;;;;;;;;;;4961857;28;20043;-60
2020/12/26 06:11:34;;;;;;;3.70;1.38;;;;;;;;;;4941187;28;20046;-60
2020/12/26 06:14:00;;;;;;;4.65;1.40;;;;;;;;;;4961716;28;20099;-59
2020/12/26 06:16:28;;;;;;;4.22;1.30;;;;;;;;;;4961186;28;20040;-59
2020/12/26 06:18:56;;;;;;;4.00;1.42;;;;;;;;;;4977784;28;20079;-60
2020/12/26 06:21:23;;;;;;;3.95;1.42;;;;;;;;;;4981140;28;20066;-59
2020/12/26 06:23:50;;;;;;;4.47;2.03;;;;;;;;;;4946265;28;20058;-60
2020/12/26 06:26:18;;;;;;;3.13;1.58;;;;;;;;;;4945411;28;20059;-60
2020/12/26 06:28:45;;;;;;;5.45;2.13;;;;;;;;;;4971323;28;20051;-59
2020/12/26 06:31:11;;;;;;;4.18;1.67;;;;;;;;;;4981863;28;20138;-59
2020/12/26 06:33:40;;;;;;;6.95;1.70;;;;;;;;;;4977464;28;20047;-60
2020/12/26 06:36:07;;;;;;;5.00;1.95;;;;;;;;;;4966058;28;20047;-59
2020/12/26 06:38:34;;;;;;;8.45;1.95;;;;;;;;;;4966394;28;20094;-59
2020/12/26 06:41:01;;;;;;;4.50;1.80;;;;;;;;;;4945884;28;20039;-60
2020/12/26 06:43:44;;;;;;;8.43;2.60;;;;;;;;;;4968456;28;20035;-59
2020/12/26 06:46:26;;;;;;;4.38;1.92;;;;;;;;;;4958808;28;20062;-60
2020/12/26 06:48:54;;;;;;;7.28;2.30;;;;;;;;;;4957537;28;20066;-59
2020/12/26 06:51:23;;;;;;;6.60;2.30;;;;;;;;;;4945179;28;20116;-60
2020/12/26 06:53:49;;;;;;;4.88;2.25;;;;;;;;;;4964962;28;20042;-60
2020/12/26 06:56:30;;;;;;;6.97;2.72;;;;;;;;;;4965067;28;20051;-59
2020/12/26 06:58:57;;;;;;;6.72;2.92;;;;;;;;;;4960085;28;20039;-59
2020/12/26 07:01:24;;;;;;;5.97;2.40;;;;;;;;;;4973205;28;20036;-59
2020/12/26 07:04:04;;;;;;;6.25;2.55;;;;;;;;;;4927441;28;20036;-59
2020/12/26 07:06:36;;;;;;;7.20;2.78;;;;;;;;;;4959978;28;20039;-60
2020/12/26 07:09:02;;;;;;;6.97;2.90;;;;;;;;;;4958238;28;20035;-60
2020/12/26 07:11:28;;;;;;;9.95;3.55;;;;;;;;;;4946612;28;20062;-59
2020/12/26 07:13:54;;;;;;;6.60;2.92;;;;;;;;;;4958281;28;20047;-59
2020/12/26 07:16:39;;;;;;;7.25;3.17;;;;;;;;;;4961836;28;20051;-59
2020/12/26 07:19:24;;;;;;;8.73;2.92;;;;;;;;;;4944624;28;20111;-59
2020/12/26 07:21:51;;;;;;;11.27;3.33;;;;;;;;;;4965313;28;20130;-59
2020/12/26 07:24:17;;;;;;;11.27;3.20;;;;;;;;;;4962133;28;20089;-58
2020/12/26 07:26:45;;;;;;;9.38;3.47;;;;;;;;;;4962382;28;20608;-59
2020/12/26 07:29:19;;;;;;;6.50;2.75;;;;;;;;;;4963849;28;20039;-61
2020/12/26 07:31:48;;;;;;;9.35;3.50;;;;;;;;;;4943819;28;20055;-59
2020/12/26 07:34:33;;;;;;;9.10;2.90;;;;;;;;;;4942373;28;20121;-60
2020/12/26 07:37:00;;;;;;;6.80;3.08;;;;;;;;;;4943494;28;20140;-59
2020/12/26 07:39:25;;;;;;;9.57;3.70;;;;;;;;;;4946694;28;20043;-60
2020/12/26 07:41:52;;;;;;;11.45;3.60;;;;;;;;;;4958888;28;20075;-60
2020/12/26 07:44:19;;;;;;;7.20;2.92;;;;;;;;;;4944979;28;20051;-60
2020/12/26 07:46:46;;;;;;;14.98;3.47;;;;;;;;;;4932527;28;20127;-59
2020/12/26 07:49:14;;;;;;;8.73;3.00;;;;;;;;;;4941619;29;20063;-59
2020/12/26 07:51:40;;;;;;;10.93;3.45;;;;;;;;;;4965493;28;20045;-60
2020/12/26 07:54:07;;;;;;;12.00;4.45;;;;;;;;;;4945242;29;20138;-59
2020/12/26 07:56:33;;;;;;;17.85;5.82;;;;;;;;;;4956059;28;20070;-59
2020/12/26 07:58:59;;;;;;;11.18;4.45;;;;;;;;;;4956875;28;20121;-59
2020/12/26 08:01:26;;;;;;;10.82;3.30;;;;;;;;;;4940546;28;20057;-59
2020/12/26 08:03:59;;;;;;;7.88;3.47;;;;;;;;;;4942518;29;20044;-59
2020/12/26 08:06:25;;;;;;;10.43;3.05;;;;;;;;;;4937767;28;20047;-59
2020/12/26 08:08:51;;;;;;;7.95;2.65;;;;;;;;;;4942935;28;20067;-60
2020/12/26 08:11:23;;;;;;;10.85;3.78;;;;;;;;;;4940108;28;20057;-59
2020/12/26 08:13:58;;;;;;;9.38;3.40;;;;;;;;;;4943617;28;20059;-59
2020/12/26 08:16:25;;;;;;;8.55;3.22;;;;;;;;;;4967392;28;20439;-60
2020/12/26 08:18:53;;;;;;;8.10;3.00;;;;;;;;;;4942024;28;20416;-60
2020/12/26 08:21:21;;;;;;;9.32;3.03;;;;;;;;;;4944857;28;20071;-59
2020/12/26 08:23:55;;;;;;;7.45;3.05;;;;;;;;;;4972148;28;20051;-60
2020/12/26 08:26:21;;;;;;;9.52;3.15;;;;;;;;;;4968151;28;20067;-60
2020/12/26 08:28:49;;;;;;;13.07;3.65;;;;;;;;;;4936696;28;20062;-59
2020/12/26 08:31:16;;;;;;;9.35;3.50;;;;;;;;;;4942309;29;20055;-59
2020/12/26 08:33:47;;;;;;;7.20;2.85;;;;;;;;;;4937571;28;20054;-59
2020/12/26 08:36:16;;;;;;;8.73;3.72;;;;;;;;;;4940539;28;20114;-59
2020/12/26 08:38:44;;;;;;;6.45;2.60;;;;;;;;;;4937027;28;20043;-59
2020/12/26 08:41:11;;;;;;;8.75;2.80;;;;;;;;;;4971903;28;20047;-59
2020/12/26 08:43:37;;;;;;;8.23;3.10;;;;;;;;;;4952387;28;20043;-59
2020/12/26 08:46:12;;;;;;;8.98;3.35;;;;;;;;;;4942186;29;20044;-59
2020/12/26 08:48:40;;;;;;;10.95;3.10;;;;;;;;;;4953399;28;20056;-59
2020/12/26 08:51:10;;;;;;;9.77;3.10;;;;;;;;;;4958528;28;20060;-59
2020/12/26 08:53:36;;;;;;;11.18;3.05;;;;;;;;;;4938932;28;20047;-58
2020/12/26 08:56:02;;;;;;;7.05;2.78;;;;;;;;;;4944492;29;20118;-59
2020/12/26 08:58:29;;;;;;;10.43;3.25;;;;;;;;;;4937597;28;20055;-59
2020/12/26 09:00:58;;;;;;;7.25;2.72;;;;;;;;;;4956419;28;20063;-59
2020/12/26 09:03:26;;;;;;;12.07;2.20;;;;;;;;;;4953771;28;20055;-59
2020/12/26 09:05:53;;;;;;;9.07;2.80;;;;;;;;;;4941139;29;20407;-59
2020/12/26 09:08:26;;;;;;;7.72;2.42;;;;;;;;;;4938465;28;20032;-60
2020/12/26 09:11:00;;;;;;;7.82;2.33;;;;;;;;;;4942772;28;20036;-59
2020/12/26 09:13:30;;;;;;;5.95;2.47;;;;;;;;;;4937949;28;20063;-59
2020/12/26 09:15:57;;;;;;;4.47;1.98;;;;;;;;;;4940467;28;20064;-59
2020/12/26 09:18:23;;;;;;;5.50;2.35;;;;;;;;;;4942378;28;20035;-59
2020/12/26 09:20:52;;;;;;;5.72;2.50;;;;;;;;;;4935420;28;20051;-60
2020/12/26 09:23:18;;;;;;;9.10;2.33;;;;;;;;;;4940221;28;20043;-59
2020/12/26 09:25:44;;;;;;;8.20;2.83;;;;;;;;;;4938941;28;20070;-59
2020/12/26 09:28:10;;;;;;;9.23;2.60;;;;;;;;;;4943506;28;20129;-59
2020/12/26 09:30:36;;;;;;;8.48;2.10;;;;;;;;;;4952468;28;20135;-60
2020/12/26 09:33:02;;;;;;;7.40;1.92;;;;;;;;;;4942070;28;20052;-60
2020/12/26 09:35:29;;;;;;;7.72;2.80;;;;;;;;;;4937413;28;20122;-60
2020/12/26 09:37:57;;;;;;;8.75;2.38;;;;;;;;;;4957354;28;20039;-59
2020/12/26 09:40:26;;;;;;;6.47;2.53;;;;;;;;;;4930120;28;20044;-59
2020/12/26 09:42:52;;;;;;;6.32;2.38;;;;;;;;;;4937716;29;20059;-60
2020/12/26 09:45:19;;;;;;;6.80;2.50;;;;;;;;;;4941601;28;20505;-59
2020/12/26 09:47:45;;;;;;;6.03;2.30;;;;;;;;;;4961885;28;20046;-59
2020/12/26 09:50:11;;;;;;;8.32;2.60;;;;;;;;;;4940440;28;20045;-59
2020/12/26 09:52:38;;;;;;;5.45;2.38;;;;;;;;;;4945889;28;20046;-59
2020/12/26 09:55:07;;;;;;;8.18;2.38;;;;;;;;;;4933916;28;20035;-59
2020/12/26 09:57:33;;;;;;;5.80;2.15;;;;;;;;;;4964918;28;20035;-60
2020/12/26 09:59:59;;;;;;;10.27;2.17;;;;;;;;;;4980366;28;20047;-59
2020/12/26 10:02:25;;;;;;;8.18;2.33;;;;;;;;;;4953726;28;20142;-59
2020/12/26 10:04:51;;;;;;;4.20;1.95;;;;;;;;;;4947346;28;20051;-59
2020/12/26 10:07:18;;;;;;;5.80;1.80;;;;;;;;;;4944355;28;20058;-59
2020/12/26 10:09:44;;;;;;;8.35;2.53;;;;;;;;;;4961808;28;20125;-59
2020/12/26 10:12:11;;;;;;;11.02;2.45;;;;;;;;;;4958390;28;20032;-59
2020/12/26 10:14:38;;;;;;;8.57;3.30;;;;;;;;;;4962536;28;20044;-59
2020/12/26 10:17:04;;;;;;;10.98;3.70;;;;;;;;;;4968613;28;20071;-59
2020/12/26 10:19:30;;;;;;;8.13;2.47;;;;;;;;;;4947903;28;20058;-59
2020/12/26 10:21:56;;;;;;;6.28;2.60;;;;;;;;;;4959899;28;20071;-59
2020/12/26 10:24:22;;;;;;;4.50;2.03;;;;;;;;;;4946041;29;20075;-59
2020/12/26 10:26:48;;;;;;;6.85;2.10;;;;;;;;;;4940246;28;20074;-59
2020/12/26 10:29:15;;;;;;;5.18;1.88;;;;;;;;;;4945444;28;20055;-59
2020/12/26 10:31:41;;;;;;;6.50;1.77;;;;;;;;;;4939988;28;20193;-59
2020/12/26 10:34:07;;;;;;;7.85;1.95;;;;;;;;;;4945003;29;20039;-59
2020/12/26 10:36:34;;;;;;;5.22;2.05;;;;;;;;;;4943962;28;20088;-59
2020/12/26 10:39:00;;;;;;;14.15;1.85;;;;;;;;;;4955859;28;20126;-59
2020/12/26 10:41:26;;;;;;;5.90;1.73;;;;;;;;;;4943938;29;20044;-59
2020/12/26 10:43:52;;;;;;;9.63;1.60;;;;;;;;;;4940278;28;20069;-59
2020/12/26 10:46:19;;;;;;;6.22;1.70;;;;;;;;;;4957853;28;20082;-60
2020/12/26 10:48:45;;;;;;;8.57;1.67;;;;;;;;;;4955823;28;20048;-59
2020/12/26 10:51:11;;;;;;;4.13;1.80;;;;;;;;;;4942986;29;20063;-60
2020/12/26 10:53:37;;;;;;;4.68;1.73;;;;;;;;;;4941833;28;20125;-59
2020/12/26 10:56:06;;;;;;;5.38;1.85;;;;;;;;;;4959743;28;20039;-59
2020/12/26 10:58:32;;;;;;;5.45;1.95;;;;;;;;;;4939025;28;20044;-59
2020/12/26 11:00:58;;;;;;;4.95;1.73;;;;;;;;;;4974339;28;20105;-59
2020/12/26 11:03:24;;;;;;;10.55;1.77;;;;;;;;;;4940452;28;20054;-58
2020/12/26 11:05:51;;;;;;;6.13;1.70;;;;;;;;;;4942933;28;20039;-59
2020/12/26 11:08:17;;;;;;;7.72;2.05;;;;;;;;;;4939870;28;20059;-58
2020/12/26 11:10:44;;;;;;;9.68;1.60;;;;;;;;;;4944468;29;20071;-59
2020/12/26 11:13:10;;;;;;;4.63;1.67;;;;;;;;;;4939680;28;20483;-59
2020/12/26 11:15:37;;;;;;;8.38;1.70;;;;;;;;;;4943929;28;20051;-59
2020/12/26 11:18:03;;;;;;;3.10;1.30;;;;;;;;;;4944355;28;20036;-59
2020/12/26 11:20:30;;;;;;;5.88;1.40;;;;;;;;;;4954706;28;20049;-59
2020/12/26 11:22:57;;;;;;;4.03;1.52;;;;;;;;;;4944764;29;20039;-59
2020/12/26 11:25:23;;;;;;;7.38;1.85;;;;;;;;;;4939394;28;20059;-59
2020/12/26 11:27:49;;;;;;;6.35;2.10;;;;;;;;;;4943563;28;20027;-59
2020/12/26 11:30:15;;;;;;;4.28;1.67;;;;;;;;;;4939116;28;20051;-59
2020/12/26 11:32:42;;;;;;;9.05;3.10;;;;;;;;;;4943183;28;20083;-59
2020/12/26 11:35:08;;;;;;;10.82;2.72;;;;;;;;;;4957059;28;20032;-59
2020/12/26 11:37:35;;;;;;;5.60;1.85;;;;;;;;;;4958967;28;20083;-59
2020/12/26 11:40:01;;;;;;;7.03;1.50;;;;;;;;;;4940008;28;20051;-58
2020/12/26 11:42:27;;;;;;;6.85;1.60;;;;;;;;;;4960011;28;20046;-59
2020/12/26 11:44:53;;;;;;;4.68;1.38;;;;;;;;;;4953971;28;20064;-59
2020/12/26 11:47:19;;;;;;;4.65;1.33;;;;;;;;;;4946069;28;20047;-59
2020/12/26 11:49:45;;;;;;;5.28;1.30;;;;;;;;;;4959402;28;20175;-59
2020/12/26 11:52:11;;;;;;;3.50;1.10;;;;;;;;;;4943413;28;20120;-59
2020/12/26 11:54:39;;;;;;;5.45;0.95;;;;;;;;;;4939992;28;20083;-59
2020/12/26 11:57:05;;;;;;;5.80;1.60;;;;;;;;;;4941117;28;20043;-59
2020/12/26 11:59:31;;;;;;;5.20;1.25;;;;;;;;;;4941784;28;20059;-59
2020/12/26 12:01:57;;;;;;;6.20;1.40;;;;;;;;;;4942092;28;20055;-59
2020/12/26 12:04:25;;;;;;;6.10;1.70;;;;;;;;;;4958212;28;20063;-59
2020/12/26 12:06:51;;;;;;;5.65;1.50;;;;;;;;;;4939731;28;20044;-59
2020/12/26 12:09:17;;;;;;;8.32;1.63;;;;;;;;;;4942625;29;20083;-59
2020/12/26 12:11:46;;;;;;;4.57;1.33;;;;;;;;;;4937792;28;20067;-59
2020/12/26 12:14:12;;;;;;;5.72;1.60;;;;;;;;;;4943322;29;20052;-59
2020/12/26 12:16:40;;;;;;;9.63;2.00;;;;;;;;;;4954452;28;20048;-59
2020/12/26 12:19:06;;;;;;;7.47;1.67;;;;;;;;;;4943818;28;20071;-59
2020/12/26 12:21:32;;;;;;;3.58;1.40;;;;;;;;;;4939654;28;20048;-59
2020/12/26 12:23:58;;;;;;;4.57;1.42;;;;;;;;;;4956826;28;20090;-59
2020/12/26 12:26:24;;;;;;;3.75;1.42;;;;;;;;;;4952841;28;20048;-59
2020/12/26 12:28:53;;;;;;;6.53;1.55;;;;;;;;;;4957768;28;20046;-59
2020/12/26 12:31:20;;;;;;;6.03;1.45;;;;;;;;;;4955099;28;20119;-58
2020/12/26 12:33:46;;;;;;;6.60;1.52;;;;;;;;;;4943324;29;20048;-59
2020/12/26 12:36:13;;;;;;;2.17;1.10;;;;;;;;;;4941210;28;20042;-59
2020/12/26 12:38:40;;;;;;;3.60;1.30;;;;;;;;;;4972625;28;20039;-59
2020/12/26 12:41:06;;;;;;;5.45;1.23;;;;;;;;;;4943281;29;20047;-59
2020/12/26 12:43:32;;;;;;;2.33;1.25;;;;;;;;;;4938985;28;20040;-60
2020/12/26 12:46:00;;;;;;;8.73;1.80;;;;;;;;;;4944310;28;20040;-59
2020/12/26 12:48:27;;;;;;;3.90;1.48;;;;;;;;;;4935926;28;20064;-59
2020/12/26 12:50:52;;;;;;;3.47;1.30;;;;;;;;;;4942279;28;20047;-59
2020/12/26 12:53:19;;;;;;;2.40;0.95;;;;;;;;;;4937460;28;20155;-59
2020/12/26 12:55:47;;;;;;;4.20;1.50;;;;;;;;;;4958701;28;20057;-59
2020/12/26 12:58:13;;;;;;;4.03;1.30;;;;;;;;;;4954088;28;20074;-59
2020/12/26 13:00:39;;;;;;;6.40;1.45;;;;;;;;;;4940996;28;20042;-59
2020/12/26 13:03:06;;;;;;;3.25;1.40;;;;;;;;;;4952798;28;20106;-59
2020/12/26 13:05:36;;;;;;;7.47;1.80;;;;;;;;;;4942116;28;20091;-59
2020/12/26 13:08:03;;;;;;;7.47;2.10;;;;;;;;;;4937667;28;20042;-60
2020/12/26 13:10:29;;;;;;;6.45;1.92;;;;;;;;;;4942960;28;22111;-59
2020/12/26 13:12:55;;;;;;;7.45;1.35;;;;;;;;;;4939153;28;20039;-59
2020/12/26 13:15:22;;;;;;;3.92;1.75;;;;;;;;;;4953230;28;20111;-59
2020/12/26 13:17:48;;;;;;;4.57;1.75;;;;;;;;;;4944231;28;20080;-59
2020/12/26 13:20:15;;;;;;;6.70;1.98;;;;;;;;;;4937753;28;20099;-59
2020/12/26 13:22:41;;;;;;;6.75;1.67;;;;;;;;;;4960744;28;20035;-59
2020/12/26 13:25:07;;;;;;;6.05;1.95;;;;;;;;;;4954081;28;20039;-59
2020/12/26 13:27:33;;;;;;;7.22;1.52;;;;;;;;;;4944610;28;20039;-59
2020/12/26 13:29:59;;;;;;;5.13;1.80;;;;;;;;;;4941006;28;20055;-59
2020/12/26 13:32:25;;;;;;;7.80;1.58;;;;;;;;;;4943417;28;20507;-59
2020/12/26 13:34:52;;;;;;;3.83;1.30;;;;;;;;;;4955566;28;20052;-59
2020/12/26 13:37:18;;;;;;;6.07;1.92;;;;;;;;;;4943406;28;20036;-59
2020/12/26 13:39:44;;;;;;;6.53;1.80;;;;;;;;;;4941569;28;20063;-59
2020/12/26 13:42:11;;;;;;;6.32;1.70;;;;;;;;;;4960422;28;20079;-59
2020/12/26 13:44:37;;;;;;;7.65;2.13;;;;;;;;;;4954687;28;20083;-59
2020/12/26 13:47:03;;;;;;;3.88;1.67;;;;;;;;;;4958793;28;20070;-59
2020/12/26 13:49:29;;;;;;;6.53;1.80;;;;;;;;;;4941365;28;20068;-60
2020/12/26 13:51:55;;;;;;;4.13;1.65;;;;;;;;;;4946420;28;20044;-59
2020/12/26 13:54:24;;;;;;;5.25;1.80;;;;;;;;;;4957132;28;20126;-59
2020/12/26 13:56:50;;;;;;;;;;;;;;;;;;4944548;28;20050;-59
2020/12/26 13:59:16;;;;;;;9.73;2.63;;;;;;;;;;4942542;28;19931;-59
2020/12/26 14:01:43;;;;;;;4.47;1.40;;;;;;;;;;4955945;28;20047;-59
2020/12/26 14:04:09;;;;;;;7.28;1.45;;;;;;;;;;4960940;28;20117;-59
2020/12/26 14:06:35;;;;;;;3.33;1.50;;;;;;;;;;4941236;28;20048;-59
2020/12/26 14:09:03;;;;;;;5.25;1.58;;;;;;;;;;4944850;28;20040;-59
2020/12/26 14:11:30;;;;;;;3.67;1.40;;;;;;;;;;4956433;28;20056;-59
2020/12/26 14:13:56;;;;;;;4.47;1.60;;;;;;;;;;4945417;28;20043;-59
2020/12/26 14:16:23;;;;;;;4.68;1.60;;;;;;;;;;4940564;28;20071;-59
2020/12/26 14:18:49;;;;;;;3.53;1.35;;;;;;;;;;4958739;28;20467;-59
2020/12/26 14:21:15;;;;;;;4.70;1.17;;;;;;;;;;4942353;28;20058;-60
2020/12/26 14:23:41;;;;;;;10.55;1.48;;;;;;;;;;4951402;28;20067;-59
2020/12/26 14:26:09;;;;;;;4.07;1.70;;;;;;;;;;4940861;28;20039;-59
2020/12/26 14:28:38;;;;;;;3.60;1.25;;;;;;;;;;4958917;28;20044;-59
2020/12/26 14:31:04;;;;;;;4.15;1.63;;;;;;;;;;4942486;28;20051;-59
2020/12/26 14:33:30;;;;;;;2.88;1.33;;;;;;;;;;4955112;28;20102;-59
2020/12/26 14:35:57;;;;;;;3.28;1.58;;;;;;;;;;4943202;28;20122;-59
2020/12/26 14:38:23;;;;;;;4.40;1.50;;;;;;;;;;4957315;28;20036;-59
2020/12/26 14:40:49;;;;;;;6.97;1.80;;;;;;;;;;4959785;28;20031;-59